sensor_id;sensor_type;location;lat;lon;timestamp;P1;durP1;ratioP1;P2;durP2;ratioP2
48042;SDS011;33988;47.992;8.820;2022-12-05T00:04:07;8.05;;;4.57;;
48042;SDS011;33988;47.992;8.820;2022-12-05T00:06:40;9.20;;;4.72;;
48042;SDS011;33988;47.992;8.820;2022-12-05T00:09:09;8.50;;;5.20;;
48042;SDS011;33988;47.992;8.820;2022-12-05T00:11:38;6.78;;;4.65;;
48042;SDS011;33988;47.992;8.820;2022-12-05T00:14:08;9.25;;;4.47;;
48042;SDS011;33988;47.992;8.820;2022-12-05T00:16:37;6.68;;;4.43;;
48042;SDS011;33988;47.992;8.820;2022-12-05T00:19:06;8.45;;;4.40;;
48042;SDS011;33988;47.992;8.820;2022-12-05T00:21:36;6.65;;;4.28;;
48042;SDS011;33988;47.992;8.820;2022-12-05T00:24:07;6.53;;;3.92;;
48042;SDS011;33988;47.992;8.820;2022-12-05T00:26:41;6.68;;;3.97;;
48042;SDS011;33988;47.992;8.820;2022-12-05T00:29:08;5.43;;;3.45;;
48042;SDS011;33988;47.992;8.820;2022-12-05T00:34:09;6.32;;;3.30;;
48042;SDS011;33988;47.992;8.820;2022-12-05T00:36:40;6.00;;;3.40;;
48042;SDS011;33988;47.992;8.820;2022-12-05T00:39:09;5.43;;;3.67;;
48042;SDS011;33988;47.992;8.820;2022-12-05T00:41:40;6.95;;;4.63;;
48042;SDS011;33988;47.992;8.820;2022-12-05T00:44:09;6.70;;;4.18;;
48042;SDS011;33988;47.992;8.820;2022-12-05T00:46:37;5.35;;;3.60;;
48042;SDS011;33988;47.992;8.820;2022-12-05T00:49:10;6.97;;;3.97;;
48042;SDS011;33988;47.992;8.820;2022-12-05T00:51:38;7.45;;;4.78;;
48042;SDS011;33988;47.992;8.820;2022-12-05T00:54:08;5.30;;;3.35;;
48042;SDS011;33988;47.992;8.820;2022-12-05T00:56:42;5.88;;;4.15;;
48042;SDS011;33988;47.992;8.820;2022-12-05T00:59:13;4.53;;;3.42;;
48042;SDS011;33988;47.992;8.820;2022-12-05T01:01:43;5.57;;;3.53;;
48042;SDS011;33988;47.992;8.820;2022-12-05T01:04:15;5.75;;;3.47;;
48042;SDS011;33988;47.992;8.820;2022-12-05T01:06:48;4.72;;;3.47;;
48042;SDS011;33988;47.992;8.820;2022-12-05T01:09:19;6.25;;;3.83;;
48042;SDS011;33988;47.992;8.820;2022-12-05T01:11:48;5.32;;;3.85;;
48042;SDS011;33988;47.992;8.820;2022-12-05T01:14:17;6.60;;;3.78;;
48042;SDS011;33988;47.992;8.820;2022-12-05T01:16:47;5.03;;;3.35;;
48042;SDS011;33988;47.992;8.820;2022-12-05T01:21:48;3.22;;;2.50;;
48042;SDS011;33988;47.992;8.820;2022-12-05T01:24:16;4.30;;;2.95;;
48042;SDS011;33988;47.992;8.820;2022-12-05T01:26:45;5.57;;;3.38;;
48042;SDS011;33988;47.992;8.820;2022-12-05T01:29:19;5.93;;;3.70;;
48042;SDS011;33988;47.992;8.820;2022-12-05T01:31:47;5.82;;;3.40;;
48042;SDS011;33988;47.992;8.820;2022-12-05T01:34:17;5.93;;;3.38;;
48042;SDS011;33988;47.992;8.820;2022-12-05T01:36:45;5.10;;;3.45;;
48042;SDS011;33988;47.992;8.820;2022-12-05T01:39:12;5.28;;;3.45;;
48042;SDS011;33988;47.992;8.820;2022-12-05T01:41:42;5.03;;;3.33;;
48042;SDS011;33988;47.992;8.820;2022-12-05T01:46:42;7.68;;;3.88;;
48042;SDS011;33988;47.992;8.820;2022-12-05T01:49:32;5.80;;;3.72;;
48042;SDS011;33988;47.992;8.820;2022-12-05T01:52:08;5.32;;;3.35;;
48042;SDS011;33988;47.992;8.820;2022-12-05T01:54:43;5.60;;;3.75;;
48042;SDS011;33988;47.992;8.820;2022-12-05T01:57:13;5.63;;;3.75;;
48042;SDS011;33988;47.992;8.820;2022-12-05T01:59:43;5.00;;;3.13;;
48042;SDS011;33988;47.992;8.820;2022-12-05T02:02:16;5.25;;;3.40;;
48042;SDS011;33988;47.992;8.820;2022-12-05T02:04:49;4.85;;;3.25;;
48042;SDS011;33988;47.992;8.820;2022-12-05T02:07:29;5.38;;;3.08;;
48042;SDS011;33988;47.992;8.820;2022-12-05T02:09:59;4.97;;;3.28;;
48042;SDS011;33988;47.992;8.820;2022-12-05T02:12:26;5.72;;;3.33;;
48042;SDS011;33988;47.992;8.820;2022-12-05T02:36:58;6.47;;;3.88;;
48042;SDS011;33988;47.992;8.820;2022-12-05T02:40:18;4.93;;;3.63;;
48042;SDS011;33988;47.992;8.820;2022-12-05T02:45:27;5.65;;;3.72;;
48042;SDS011;33988;47.992;8.820;2022-12-05T02:48:00;4.95;;;3.47;;
48042;SDS011;33988;47.992;8.820;2022-12-05T02:50:28;6.32;;;3.85;;
48042;SDS011;33988;47.992;8.820;2022-12-05T02:53:04;5.93;;;3.90;;
48042;SDS011;33988;47.992;8.820;2022-12-05T02:55:35;6.82;;;4.03;;
48042;SDS011;33988;47.992;8.820;2022-12-05T02:58:13;5.35;;;3.55;;
48042;SDS011;33988;47.992;8.820;2022-12-05T03:00:48;5.88;;;3.63;;
48042;SDS011;33988;47.992;8.820;2022-12-05T03:03:18;6.03;;;3.83;;
48042;SDS011;33988;47.992;8.820;2022-12-05T03:06:06;6.50;;;4.30;;
48042;SDS011;33988;47.992;8.820;2022-12-05T03:11:37;5.35;;;3.38;;
48042;SDS011;33988;47.992;8.820;2022-12-05T03:14:12;7.60;;;4.57;;
48042;SDS011;33988;47.992;8.820;2022-12-05T03:16:48;6.15;;;4.13;;
48042;SDS011;33988;47.992;8.820;2022-12-05T03:19:24;8.93;;;4.68;;
48042;SDS011;33988;47.992;8.820;2022-12-05T03:22:02;9.23;;;4.60;;
48042;SDS011;33988;47.992;8.820;2022-12-05T03:25:03;7.03;;;4.20;;
48042;SDS011;33988;47.992;8.820;2022-12-05T03:30:25;6.20;;;4.30;;
48042;SDS011;33988;47.992;8.820;2022-12-05T03:43:57;7.25;;;4.28;;
48042;SDS011;33988;47.992;8.820;2022-12-05T03:52:17;5.93;;;3.83;;
48042;SDS011;33988;47.992;8.820;2022-12-05T03:55:19;7.78;;;4.55;;
48042;SDS011;33988;47.992;8.820;2022-12-05T03:58:00;8.65;;;4.68;;
48042;SDS011;33988;47.992;8.820;2022-12-05T04:00:38;9.73;;;4.78;;
48042;SDS011;33988;47.992;8.820;2022-12-05T04:03:16;7.72;;;4.75;;
48042;SDS011;33988;47.992;8.820;2022-12-05T04:09:05;7.93;;;4.40;;
48042;SDS011;33988;47.992;8.820;2022-12-05T04:11:45;9.43;;;5.10;;
48042;SDS011;33988;47.992;8.820;2022-12-05T04:14:41;8.63;;;5.10;;
48042;SDS011;33988;47.992;8.820;2022-12-05T04:20:05;7.03;;;3.90;;
48042;SDS011;33988;47.992;8.820;2022-12-05T04:23:02;7.35;;;3.83;;
48042;SDS011;33988;47.992;8.820;2022-12-05T04:25:35;6.82;;;4.53;;
48042;SDS011;33988;47.992;8.820;2022-12-05T04:28:54;6.85;;;4.25;;
48042;SDS011;33988;47.992;8.820;2022-12-05T04:31:28;7.57;;;4.85;;
48042;SDS011;33988;47.992;8.820;2022-12-05T04:34:05;6.95;;;4.57;;
48042;SDS011;33988;47.992;8.820;2022-12-05T04:41:53;8.63;;;5.55;;
48042;SDS011;33988;47.992;8.820;2022-12-05T04:44:29;9.23;;;5.38;;
48042;SDS011;33988;47.992;8.820;2022-12-05T04:47:21;9.68;;;5.45;;
48042;SDS011;33988;47.992;8.820;2022-12-05T04:49:57;9.13;;;4.82;;
48042;SDS011;33988;47.992;8.820;2022-12-05T04:52:28;7.93;;;4.43;;
48042;SDS011;33988;47.992;8.820;2022-12-05T04:57:41;6.75;;;4.32;;
48042;SDS011;33988;47.992;8.820;2022-12-05T05:00:36;6.40;;;4.03;;
48042;SDS011;33988;47.992;8.820;2022-12-05T05:06:32;5.80;;;3.85;;
48042;SDS011;33988;47.992;8.820;2022-12-05T05:09:03;8.87;;;5.10;;
48042;SDS011;33988;47.992;8.820;2022-12-05T05:11:31;8.20;;;5.25;;
48042;SDS011;33988;47.992;8.820;2022-12-05T05:14:04;9.05;;;5.80;;
48042;SDS011;33988;47.992;8.820;2022-12-05T05:16:35;9.95;;;5.18;;
48042;SDS011;33988;47.992;8.820;2022-12-05T05:19:08;10.13;;;5.50;;
48042;SDS011;33988;47.992;8.820;2022-12-05T05:21:40;10.70;;;6.15;;
48042;SDS011;33988;47.992;8.820;2022-12-05T05:24:08;12.70;;;6.00;;
48042;SDS011;33988;47.992;8.820;2022-12-05T05:26:37;9.88;;;5.18;;
48042;SDS011;33988;47.992;8.820;2022-12-05T05:29:09;10.27;;;5.88;;
48042;SDS011;33988;47.992;8.820;2022-12-05T05:31:40;8.57;;;5.43;;
48042;SDS011;33988;47.992;8.820;2022-12-05T05:34:07;10.45;;;6.65;;
48042;SDS011;33988;47.992;8.820;2022-12-05T05:36:38;11.30;;;6.38;;
48042;SDS011;33988;47.992;8.820;2022-12-05T05:39:05;11.50;;;6.82;;
48042;SDS011;33988;47.992;8.820;2022-12-05T05:41:40;14.13;;;7.15;;
48042;SDS011;33988;47.992;8.820;2022-12-05T05:44:09;13.50;;;7.53;;
48042;SDS011;33988;47.992;8.820;2022-12-05T05:46:36;10.45;;;5.80;;
48042;SDS011;33988;47.992;8.820;2022-12-05T05:49:03;12.65;;;7.28;;
48042;SDS011;33988;47.992;8.820;2022-12-05T05:51:31;15.27;;;7.63;;
48042;SDS011;33988;47.992;8.820;2022-12-05T05:53:58;12.32;;;6.75;;
48042;SDS011;33988;47.992;8.820;2022-12-05T05:56:26;14.02;;;7.60;;
48042;SDS011;33988;47.992;8.820;2022-12-05T05:58:55;11.77;;;6.72;;
48042;SDS011;33988;47.992;8.820;2022-12-05T06:01:29;12.43;;;6.40;;
48042;SDS011;33988;47.992;8.820;2022-12-05T06:03:58;12.55;;;7.07;;
48042;SDS011;33988;47.992;8.820;2022-12-05T06:06:27;11.85;;;6.28;;
48042;SDS011;33988;47.992;8.820;2022-12-05T06:08:54;12.52;;;6.80;;
48042;SDS011;33988;47.992;8.820;2022-12-05T06:11:22;11.15;;;6.45;;
48042;SDS011;33988;47.992;8.820;2022-12-05T06:13:53;10.48;;;5.95;;
48042;SDS011;33988;47.992;8.820;2022-12-05T06:16:21;10.45;;;6.63;;
48042;SDS011;33988;47.992;8.820;2022-12-05T06:18:48;10.85;;;6.63;;
48042;SDS011;33988;47.992;8.820;2022-12-05T06:21:16;12.60;;;6.68;;
48042;SDS011;33988;47.992;8.820;2022-12-05T06:23:43;11.13;;;6.63;;
48042;SDS011;33988;47.992;8.820;2022-12-05T06:26:12;8.25;;;5.32;;
48042;SDS011;33988;47.992;8.820;2022-12-05T06:31:11;9.57;;;5.78;;
48042;SDS011;33988;47.992;8.820;2022-12-05T06:33:46;11.13;;;5.88;;
48042;SDS011;33988;47.992;8.820;2022-12-05T06:36:15;10.55;;;6.15;;
48042;SDS011;33988;47.992;8.820;2022-12-05T06:38:46;11.10;;;6.05;;
48042;SDS011;33988;47.992;8.820;2022-12-05T06:41:14;11.77;;;6.85;;
48042;SDS011;33988;47.992;8.820;2022-12-05T06:43:44;8.70;;;5.53;;
48042;SDS011;33988;47.992;8.820;2022-12-05T06:46:12;12.45;;;6.93;;
48042;SDS011;33988;47.992;8.820;2022-12-05T06:48:42;9.77;;;5.95;;
48042;SDS011;33988;47.992;8.820;2022-12-05T06:51:10;8.70;;;5.55;;
48042;SDS011;33988;47.992;8.820;2022-12-05T06:53:40;11.13;;;6.65;;
48042;SDS011;33988;47.992;8.820;2022-12-05T06:56:15;9.38;;;6.15;;
48042;SDS011;33988;47.992;8.820;2022-12-05T06:58:45;9.38;;;5.85;;
48042;SDS011;33988;47.992;8.820;2022-12-05T07:01:19;11.35;;;6.00;;
48042;SDS011;33988;47.992;8.820;2022-12-05T07:04:21;10.73;;;5.80;;
48042;SDS011;33988;47.992;8.820;2022-12-05T07:06:52;9.48;;;6.25;;
48042;SDS011;33988;47.992;8.820;2022-12-05T07:09:24;9.68;;;6.00;;
48042;SDS011;33988;47.992;8.820;2022-12-05T07:12:14;9.57;;;6.07;;
48042;SDS011;33988;47.992;8.820;2022-12-05T07:14:46;11.40;;;7.32;;
48042;SDS011;33988;47.992;8.820;2022-12-05T07:17:16;13.07;;;7.55;;
48042;SDS011;33988;47.992;8.820;2022-12-05T07:19:48;10.07;;;5.78;;
48042;SDS011;33988;47.992;8.820;2022-12-05T07:22:17;11.80;;;6.47;;
48042;SDS011;33988;47.992;8.820;2022-12-05T07:24:45;10.00;;;6.20;;
48042;SDS011;33988;47.992;8.820;2022-12-05T07:27:14;11.00;;;6.07;;
48042;SDS011;33988;47.992;8.820;2022-12-05T07:29:52;10.40;;;5.78;;
48042;SDS011;33988;47.992;8.820;2022-12-05T07:32:19;9.57;;;5.93;;
48042;SDS011;33988;47.992;8.820;2022-12-05T07:34:46;11.73;;;6.35;;
48042;SDS011;33988;47.992;8.820;2022-12-05T07:37:20;9.05;;;5.93;;
48042;SDS011;33988;47.992;8.820;2022-12-05T07:39:47;11.15;;;6.32;;
48042;SDS011;33988;47.992;8.820;2022-12-05T07:42:16;10.95;;;5.63;;
48042;SDS011;33988;47.992;8.820;2022-12-05T07:44:43;7.55;;;4.72;;
48042;SDS011;33988;47.992;8.820;2022-12-05T07:47:10;13.23;;;5.85;;
48042;SDS011;33988;47.992;8.820;2022-12-05T07:49:39;11.35;;;6.55;;
48042;SDS011;33988;47.992;8.820;2022-12-05T07:52:06;11.88;;;7.63;;
48042;SDS011;33988;47.992;8.820;2022-12-05T07:54:34;14.35;;;9.02;;
48042;SDS011;33988;47.992;8.820;2022-12-05T07:57:01;10.43;;;6.85;;
48042;SDS011;33988;47.992;8.820;2022-12-05T07:59:28;11.30;;;6.97;;
48042;SDS011;33988;47.992;8.820;2022-12-05T08:01:55;9.63;;;6.63;;
48042;SDS011;33988;47.992;8.820;2022-12-05T08:04:22;12.10;;;7.55;;
48042;SDS011;33988;47.992;8.820;2022-12-05T08:06:51;11.93;;;7.55;;
48042;SDS011;33988;47.992;8.820;2022-12-05T08:09:18;10.77;;;6.82;;
48042;SDS011;33988;47.992;8.820;2022-12-05T08:11:47;9.70;;;6.25;;
48042;SDS011;33988;47.992;8.820;2022-12-05T08:14:18;9.02;;;5.85;;
48042;SDS011;33988;47.992;8.820;2022-12-05T08:16:45;10.13;;;6.35;;
48042;SDS011;33988;47.992;8.820;2022-12-05T08:19:12;8.57;;;6.00;;
48042;SDS011;33988;47.992;8.820;2022-12-05T08:21:42;10.88;;;6.43;;
48042;SDS011;33988;47.992;8.820;2022-12-05T08:24:12;10.20;;;5.45;;
48042;SDS011;33988;47.992;8.820;2022-12-05T08:26:41;7.60;;;5.05;;
48042;SDS011;33988;47.992;8.820;2022-12-05T08:29:10;8.43;;;5.15;;
48042;SDS011;33988;47.992;8.820;2022-12-05T08:31:41;6.68;;;4.50;;
48042;SDS011;33988;47.992;8.820;2022-12-05T08:34:17;7.28;;;4.78;;
48042;SDS011;33988;47.992;8.820;2022-12-05T08:36:45;7.38;;;4.55;;
48042;SDS011;33988;47.992;8.820;2022-12-05T08:39:18;7.10;;;4.35;;
48042;SDS011;33988;47.992;8.820;2022-12-05T08:41:47;8.25;;;4.80;;
48042;SDS011;33988;47.992;8.820;2022-12-05T08:44:15;6.70;;;4.22;;
48042;SDS011;33988;47.992;8.820;2022-12-05T08:46:45;6.63;;;4.43;;
48042;SDS011;33988;47.992;8.820;2022-12-05T08:49:16;7.93;;;4.68;;
48042;SDS011;33988;47.992;8.820;2022-12-05T08:51:43;8.35;;;4.75;;
48042;SDS011;33988;47.992;8.820;2022-12-05T08:54:15;7.75;;;4.55;;
48042;SDS011;33988;47.992;8.820;2022-12-05T08:56:47;6.70;;;4.65;;
48042;SDS011;33988;47.992;8.820;2022-12-05T08:59:17;6.30;;;4.32;;
48042;SDS011;33988;47.992;8.820;2022-12-05T09:01:48;8.23;;;4.97;;
48042;SDS011;33988;47.992;8.820;2022-12-05T09:04:16;7.93;;;4.20;;
48042;SDS011;33988;47.992;8.820;2022-12-05T09:06:42;7.25;;;4.85;;
48042;SDS011;33988;47.992;8.820;2022-12-05T09:09:12;6.65;;;4.53;;
48042;SDS011;33988;47.992;8.820;2022-12-05T09:11:42;8.50;;;5.32;;
48042;SDS011;33988;47.992;8.820;2022-12-05T09:14:16;6.43;;;4.40;;
48042;SDS011;33988;47.992;8.820;2022-12-05T09:16:44;5.45;;;4.07;;
48042;SDS011;33988;47.992;8.820;2022-12-05T09:19:18;6.67;;;4.30;;
48042;SDS011;33988;47.992;8.820;2022-12-05T09:21:46;6.55;;;4.57;;
48042;SDS011;33988;47.992;8.820;2022-12-05T09:24:13;5.97;;;4.15;;
48042;SDS011;33988;47.992;8.820;2022-12-05T09:26:43;6.45;;;4.47;;
48042;SDS011;33988;47.992;8.820;2022-12-05T09:29:10;6.85;;;4.45;;
48042;SDS011;33988;47.992;8.820;2022-12-05T09:31:44;6.30;;;4.00;;
48042;SDS011;33988;47.992;8.820;2022-12-05T09:34:14;6.95;;;4.43;;
48042;SDS011;33988;47.992;8.820;2022-12-05T09:36:43;8.82;;;4.53;;
48042;SDS011;33988;47.992;8.820;2022-12-05T09:39:37;6.72;;;4.40;;
48042;SDS011;33988;47.992;8.820;2022-12-05T09:45:11;6.55;;;3.97;;
48042;SDS011;33988;47.992;8.820;2022-12-05T09:48:13;6.50;;;4.22;;
48042;SDS011;33988;47.992;8.820;2022-12-05T09:50:45;6.50;;;3.92;;
48042;SDS011;33988;47.992;8.820;2022-12-05T09:53:29;7.32;;;4.15;;
48042;SDS011;33988;47.992;8.820;2022-12-05T10:20:53;9.52;;;5.57;;
48042;SDS011;33988;47.992;8.820;2022-12-05T10:26:27;10.02;;;4.88;;
48042;SDS011;33988;47.992;8.820;2022-12-05T10:34:20;9.43;;;5.35;;
48042;SDS011;33988;47.992;8.820;2022-12-05T10:39:46;10.23;;;5.72;;
48042;SDS011;33988;47.992;8.820;2022-12-05T10:42:16;9.30;;;6.18;;
48042;SDS011;33988;47.992;8.820;2022-12-05T10:45:13;9.23;;;5.88;;
48042;SDS011;33988;47.992;8.820;2022-12-05T10:47:46;6.93;;;4.93;;
48042;SDS011;33988;47.992;8.820;2022-12-05T10:50:19;7.03;;;4.95;;
48042;SDS011;33988;47.992;8.820;2022-12-05T10:52:56;6.13;;;4.25;;
48042;SDS011;33988;47.992;8.820;2022-12-05T10:55:36;7.25;;;4.95;;
48042;SDS011;33988;47.992;8.820;2022-12-05T10:58:27;8.43;;;4.43;;
48042;SDS011;33988;47.992;8.820;2022-12-05T11:00:56;7.75;;;4.93;;
48042;SDS011;33988;47.992;8.820;2022-12-05T11:03:34;8.00;;;4.75;;
48042;SDS011;33988;47.992;8.820;2022-12-05T11:06:16;6.72;;;4.53;;
48042;SDS011;33988;47.992;8.820;2022-12-05T11:09:02;6.93;;;4.80;;
48042;SDS011;33988;47.992;8.820;2022-12-05T11:17:48;7.00;;;4.25;;
48042;SDS011;33988;47.992;8.820;2022-12-05T11:22:44;5.47;;;3.97;;
48042;SDS011;33988;47.992;8.820;2022-12-05T11:25:29;5.85;;;4.00;;
48042;SDS011;33988;47.992;8.820;2022-12-05T11:33:22;5.22;;;3.50;;
48042;SDS011;33988;47.992;8.820;2022-12-05T11:35:58;6.88;;;3.58;;
48042;SDS011;33988;47.992;8.820;2022-12-05T11:38:44;4.70;;;3.22;;
48042;SDS011;33988;47.992;8.820;2022-12-05T11:55:56;5.57;;;2.97;;
48042;SDS011;33988;47.992;8.820;2022-12-05T12:07:58;4.60;;;3.25;;
48042;SDS011;33988;47.992;8.820;2022-12-05T12:24:20;4.78;;;3.70;;
48042;SDS011;33988;47.992;8.820;2022-12-05T12:33:51;5.72;;;3.97;;
48042;SDS011;33988;47.992;8.820;2022-12-05T12:51:28;5.75;;;3.88;;
48042;SDS011;33988;47.992;8.820;2022-12-05T13:06:20;5.25;;;3.80;;
48042;SDS011;33988;47.992;8.820;2022-12-05T13:08:43;4.85;;;3.83;;
48042;SDS011;33988;47.992;8.820;2022-12-05T13:11:18;4.60;;;3.85;;
48042;SDS011;33988;47.992;8.820;2022-12-05T13:13:50;4.50;;;3.75;;
48042;SDS011;33988;47.992;8.820;2022-12-05T13:16:25;4.97;;;3.50;;
48042;SDS011;33988;47.992;8.820;2022-12-05T13:18:57;7.10;;;4.07;;
48042;SDS011;33988;47.992;8.820;2022-12-05T13:21:26;5.63;;;3.75;;
48042;SDS011;33988;47.992;8.820;2022-12-05T13:23:56;6.03;;;4.00;;
48042;SDS011;33988;47.992;8.820;2022-12-05T13:26:29;7.28;;;4.00;;
48042;SDS011;33988;47.992;8.820;2022-12-05T13:29:00;6.30;;;3.83;;
48042;SDS011;33988;47.992;8.820;2022-12-05T13:37:25;7.75;;;3.95;;
48042;SDS011;33988;47.992;8.820;2022-12-05T13:43:32;5.10;;;3.70;;
48042;SDS011;33988;47.992;8.820;2022-12-05T13:46:25;8.85;;;4.38;;
48042;SDS011;33988;47.992;8.820;2022-12-05T13:49:00;5.65;;;3.80;;
48042;SDS011;33988;47.992;8.820;2022-12-05T13:54:16;4.03;;;3.15;;
48042;SDS011;33988;47.992;8.820;2022-12-05T13:56:51;6.35;;;4.03;;
48042;SDS011;33988;47.992;8.820;2022-12-05T14:07:47;5.85;;;4.10;;
48042;SDS011;33988;47.992;8.820;2022-12-05T14:13:02;5.28;;;3.80;;
48042;SDS011;33988;47.992;8.820;2022-12-05T14:15:52;4.95;;;3.72;;
48042;SDS011;33988;47.992;8.820;2022-12-05T14:19:01;5.05;;;3.63;;
48042;SDS011;33988;47.992;8.820;2022-12-05T14:22:37;5.10;;;3.58;;
48042;SDS011;33988;47.992;8.820;2022-12-05T14:34:05;5.03;;;3.33;;
48042;SDS011;33988;47.992;8.820;2022-12-05T14:36:53;4.75;;;3.45;;
48042;SDS011;33988;47.992;8.820;2022-12-05T14:39:34;4.20;;;3.42;;
48042;SDS011;33988;47.992;8.820;2022-12-05T14:42:18;6.72;;;3.83;;
48042;SDS011;33988;47.992;8.820;2022-12-05T14:44:50;8.48;;;5.00;;
48042;SDS011;33988;47.992;8.820;2022-12-05T14:47:31;7.35;;;4.78;;
48042;SDS011;33988;47.992;8.820;2022-12-05T14:58:52;12.55;;;7.78;;
48042;SDS011;33988;47.992;8.820;2022-12-05T15:01:38;7.70;;;5.07;;
48042;SDS011;33988;47.992;8.820;2022-12-05T15:07:06;11.30;;;5.32;;
48042;SDS011;33988;47.992;8.820;2022-12-05T15:13:11;7.10;;;4.22;;
48042;SDS011;33988;47.992;8.820;2022-12-05T15:18:34;6.63;;;4.57;;
48042;SDS011;33988;47.992;8.820;2022-12-05T15:23:39;5.60;;;3.83;;
48042;SDS011;33988;47.992;8.820;2022-12-05T15:26:16;6.75;;;4.10;;
48042;SDS011;33988;47.992;8.820;2022-12-05T15:29:14;4.32;;;3.22;;
48042;SDS011;33988;47.992;8.820;2022-12-05T15:31:47;6.90;;;4.40;;
48042;SDS011;33988;47.992;8.820;2022-12-05T15:37:18;6.00;;;4.50;;
48042;SDS011;33988;47.992;8.820;2022-12-05T15:42:15;7.20;;;4.85;;
48042;SDS011;33988;47.992;8.820;2022-12-05T15:47:40;4.50;;;3.53;;
48042;SDS011;33988;47.992;8.820;2022-12-05T15:50:27;6.10;;;4.07;;
48042;SDS011;33988;47.992;8.820;2022-12-05T15:53:10;5.20;;;3.75;;
48042;SDS011;33988;47.992;8.820;2022-12-05T15:55:55;7.35;;;4.93;;
48042;SDS011;33988;47.992;8.820;2022-12-05T15:58:35;10.20;;;6.43;;
48042;SDS011;33988;47.992;8.820;2022-12-05T16:01:20;8.10;;;5.78;;
48042;SDS011;33988;47.992;8.820;2022-12-05T16:03:51;11.55;;;6.82;;
48042;SDS011;33988;47.992;8.820;2022-12-05T16:06:35;6.85;;;5.13;;
48042;SDS011;33988;47.992;8.820;2022-12-05T16:09:14;9.27;;;6.57;;
48042;SDS011;33988;47.992;8.820;2022-12-05T16:11:58;7.72;;;5.38;;
48042;SDS011;33988;47.992;8.820;2022-12-05T16:14:32;7.38;;;5.00;;
48042;SDS011;33988;47.992;8.820;2022-12-05T16:17:23;10.02;;;6.05;;
48042;SDS011;33988;47.992;8.820;2022-12-05T16:19:50;8.05;;;5.70;;
48042;SDS011;33988;47.992;8.820;2022-12-05T16:22:21;8.02;;;5.90;;
48042;SDS011;33988;47.992;8.820;2022-12-05T16:24:55;7.65;;;5.25;;
48042;SDS011;33988;47.992;8.820;2022-12-05T16:27:27;8.70;;;6.15;;
48042;SDS011;33988;47.992;8.820;2022-12-05T16:30:19;9.82;;;6.95;;
48042;SDS011;33988;47.992;8.820;2022-12-05T16:32:48;11.18;;;6.63;;
48042;SDS011;33988;47.992;8.820;2022-12-05T16:35:38;9.63;;;6.43;;
48042;SDS011;33988;47.992;8.820;2022-12-05T16:45:48;7.30;;;5.25;;
48042;SDS011;33988;47.992;8.820;2022-12-05T16:51:20;7.30;;;4.97;;
48042;SDS011;33988;47.992;8.820;2022-12-05T16:53:52;7.80;;;5.07;;
48042;SDS011;33988;47.992;8.820;2022-12-05T16:56:21;8.05;;;5.30;;
48042;SDS011;33988;47.992;8.820;2022-12-05T16:58:53;15.43;;;8.77;;
48042;SDS011;33988;47.992;8.820;2022-12-05T17:01:22;12.48;;;8.25;;
48042;SDS011;33988;47.992;8.820;2022-12-05T17:03:51;14.50;;;8.90;;
48042;SDS011;33988;47.992;8.820;2022-12-05T17:06:21;9.52;;;6.38;;
48042;SDS011;33988;47.992;8.820;2022-12-05T17:08:52;10.27;;;5.93;;
48042;SDS011;33988;47.992;8.820;2022-12-05T17:11:23;12.32;;;6.88;;
48042;SDS011;33988;47.992;8.820;2022-12-05T17:14:00;8.85;;;5.88;;
48042;SDS011;33988;47.992;8.820;2022-12-05T17:16:34;11.02;;;6.82;;
48042;SDS011;33988;47.992;8.820;2022-12-05T17:19:01;8.60;;;6.53;;
48042;SDS011;33988;47.992;8.820;2022-12-05T17:21:29;12.07;;;6.65;;
48042;SDS011;33988;47.992;8.820;2022-12-05T17:24:00;10.27;;;6.53;;
48042;SDS011;33988;47.992;8.820;2022-12-05T17:26:27;8.30;;;6.32;;
48042;SDS011;33988;47.992;8.820;2022-12-05T17:28:58;9.25;;;5.80;;
48042;SDS011;33988;47.992;8.820;2022-12-05T17:31:32;9.25;;;6.30;;
48042;SDS011;33988;47.992;8.820;2022-12-05T17:34:02;6.65;;;5.05;;
48042;SDS011;33988;47.992;8.820;2022-12-05T17:36:35;9.10;;;6.07;;
48042;SDS011;33988;47.992;8.820;2022-12-05T17:39:02;8.13;;;5.47;;
48042;SDS011;33988;47.992;8.820;2022-12-05T17:41:29;7.78;;;5.00;;
48042;SDS011;33988;47.992;8.820;2022-12-05T17:44:00;14.20;;;7.55;;
48042;SDS011;33988;47.992;8.820;2022-12-05T17:46:30;17.60;;;10.05;;
48042;SDS011;33988;47.992;8.820;2022-12-05T17:48:57;13.95;;;9.55;;
48042;SDS011;33988;47.992;8.820;2022-12-05T17:51:24;14.15;;;9.18;;
48042;SDS011;33988;47.992;8.820;2022-12-05T17:53:52;12.25;;;8.32;;
48042;SDS011;33988;47.992;8.820;2022-12-05T17:56:19;12.50;;;7.85;;
48042;SDS011;33988;47.992;8.820;2022-12-05T17:58:47;13.23;;;8.23;;
48042;SDS011;33988;47.992;8.820;2022-12-05T18:01:16;10.75;;;7.25;;
48042;SDS011;33988;47.992;8.820;2022-12-05T18:03:47;8.40;;;5.75;;
48042;SDS011;33988;47.992;8.820;2022-12-05T18:06:20;9.02;;;6.35;;
48042;SDS011;33988;47.992;8.820;2022-12-05T18:08:51;10.65;;;6.82;;
48042;SDS011;33988;47.992;8.820;2022-12-05T18:11:21;12.85;;;6.97;;
48042;SDS011;33988;47.992;8.820;2022-12-05T18:13:48;7.35;;;5.35;;
48042;SDS011;33988;47.992;8.820;2022-12-05T18:16:15;7.63;;;5.57;;
48042;SDS011;33988;47.992;8.820;2022-12-05T18:18:45;8.25;;;6.18;;
48042;SDS011;33988;47.992;8.820;2022-12-05T18:21:12;11.18;;;7.03;;
48042;SDS011;33988;47.992;8.820;2022-12-05T18:23:41;11.45;;;7.97;;
48042;SDS011;33988;47.992;8.820;2022-12-05T18:26:10;11.73;;;7.07;;
48042;SDS011;33988;47.992;8.820;2022-12-05T18:28:40;12.32;;;8.18;;
48042;SDS011;33988;47.992;8.820;2022-12-05T18:31:14;17.25;;;9.68;;
48042;SDS011;33988;47.992;8.820;2022-12-05T18:33:42;14.10;;;7.80;;
48042;SDS011;33988;47.992;8.820;2022-12-05T18:36:16;17.95;;;8.85;;
48042;SDS011;33988;47.992;8.820;2022-12-05T18:38:49;14.52;;;8.25;;
48042;SDS011;33988;47.992;8.820;2022-12-05T18:41:20;12.32;;;6.88;;
48042;SDS011;33988;47.992;8.820;2022-12-05T18:43:52;10.13;;;6.55;;
48042;SDS011;33988;47.992;8.820;2022-12-05T18:46:20;9.57;;;6.18;;
48042;SDS011;33988;47.992;8.820;2022-12-05T18:48:49;12.00;;;7.13;;
48042;SDS011;33988;47.992;8.820;2022-12-05T18:51:17;11.10;;;7.15;;
48042;SDS011;33988;47.992;8.820;2022-12-05T18:53:48;14.85;;;8.43;;
48042;SDS011;33988;47.992;8.820;2022-12-05T18:56:19;13.82;;;7.90;;
48042;SDS011;33988;47.992;8.820;2022-12-05T18:58:56;13.35;;;6.38;;
48042;SDS011;33988;47.992;8.820;2022-12-05T19:01:30;9.52;;;6.20;;
48042;SDS011;33988;47.992;8.820;2022-12-05T19:04:02;9.63;;;5.95;;
48042;SDS011;33988;47.992;8.820;2022-12-05T19:06:34;8.52;;;5.38;;
48042;SDS011;33988;47.992;8.820;2022-12-05T19:09:04;8.85;;;5.40;;
48042;SDS011;33988;47.992;8.820;2022-12-05T19:11:38;8.80;;;5.25;;
48042;SDS011;33988;47.992;8.820;2022-12-05T19:14:13;7.45;;;4.43;;
48042;SDS011;33988;47.992;8.820;2022-12-05T19:16:44;8.55;;;5.47;;
48042;SDS011;33988;47.992;8.820;2022-12-05T19:19:13;10.13;;;5.10;;
48042;SDS011;33988;47.992;8.820;2022-12-05T19:21:43;8.10;;;5.32;;
48042;SDS011;33988;47.992;8.820;2022-12-05T19:24:12;18.10;;;6.18;;
48042;SDS011;33988;47.992;8.820;2022-12-05T19:26:51;9.82;;;5.40;;
48042;SDS011;33988;47.992;8.820;2022-12-05T19:29:18;9.48;;;5.55;;
48042;SDS011;33988;47.992;8.820;2022-12-05T19:31:45;10.90;;;5.45;;
48042;SDS011;33988;47.992;8.820;2022-12-05T19:34:12;8.20;;;4.55;;
48042;SDS011;33988;47.992;8.820;2022-12-05T19:36:41;10.38;;;5.28;;
48042;SDS011;33988;47.992;8.820;2022-12-05T19:39:13;9.68;;;5.38;;
48042;SDS011;33988;47.992;8.820;2022-12-05T19:41:45;7.60;;;4.75;;
48042;SDS011;33988;47.992;8.820;2022-12-05T19:44:13;7.15;;;4.38;;
48042;SDS011;33988;47.992;8.820;2022-12-05T19:46:40;9.68;;;5.32;;
48042;SDS011;33988;47.992;8.820;2022-12-05T19:49:11;12.13;;;6.70;;
48042;SDS011;33988;47.992;8.820;2022-12-05T19:51:40;18.45;;;8.73;;
48042;SDS011;33988;47.992;8.820;2022-12-05T19:54:09;18.85;;;9.25;;